createdAt,value
2023-01-27T00:00:27.715Z,20.25
2023-01-27T00:05:33.024Z,20.24
2023-01-27T00:10:37.555Z,20.28
2023-01-27T00:15:40.603Z,20.21
2023-01-27T00:21:01.160Z,20.36
2023-01-27T00:26:07.539Z,20.37
2023-01-27T00:31:29.051Z,20.34
2023-01-27T00:36:32.165Z,20.21
2023-01-27T00:41:36.928Z,20.27
2023-01-27T00:46:39.949Z,20.38
2023-01-27T00:51:43.377Z,20.24
2023-01-27T00:56:47.565Z,20.31
2023-01-27T01:01:50.878Z,20.32
2023-01-27T01:06:53.759Z,20.23
2023-01-27T01:11:57.907Z,20.30
2023-01-27T01:17:00.686Z,20.25
2023-01-27T01:22:04.961Z,20.20
2023-01-27T01:27:09.205Z,20.13
2023-01-27T01:32:12.326Z,20.05
2023-01-27T01:37:15.186Z,20.10
2023-01-27T01:42:19.362Z,19.93
2023-01-27T01:47:22.672Z,20.24
2023-01-27T01:52:25.537Z,19.81
2023-01-27T01:57:34.513Z,20.01
2023-01-27T02:02:38.142Z,19.80
2023-01-27T02:07:47.233Z,19.82
2023-01-27T02:12:51.492Z,19.84
2023-01-27T02:17:54.348Z,19.83
2023-01-27T02:23:03.873Z,19.90
2023-01-27T02:28:09.277Z,19.82
2023-01-27T02:33:13.034Z,19.88
2023-01-27T02:38:18.983Z,19.85
2023-01-27T02:43:23.333Z,19.84
2023-01-27T02:48:26.342Z,19.85
2023-01-27T02:53:29.310Z,19.85
2023-01-27T02:58:33.492Z,19.82
2023-01-27T03:03:36.751Z,19.95
2023-01-27T03:08:39.606Z,19.79
2023-01-27T03:13:43.747Z,19.65
2023-01-27T03:18:47.833Z,19.75
2023-01-27T03:23:50.689Z,19.61
2023-01-27T03:29:08.836Z,19.43
2023-01-27T03:34:11.896Z,19.47
2023-01-27T03:39:32.232Z,19.40
2023-01-27T03:44:54.064Z,19.38
2023-01-27T03:49:56.910Z,19.57
2023-01-27T03:54:59.742Z,19.44
2023-01-27T04:00:05.136Z,19.54
2023-01-27T04:05:26.312Z,19.44
2023-01-27T04:10:29.141Z,19.42
2023-01-27T04:15:33.344Z,19.35
2023-01-27T04:20:37.430Z,19.40
2023-01-27T04:25:40.209Z,19.21
2023-01-27T04:30:44.347Z,19.20
2023-01-27T04:35:47.215Z,19.22
2023-01-27T04:40:50.053Z,19.25
2023-01-27T04:45:54.355Z,19.21
2023-01-27T04:50:57.203Z,19.20
2023-01-27T04:56:04.518Z,19.34
2023-01-27T05:01:08.780Z,19.16
2023-01-27T05:06:11.866Z,19.07
2023-01-27T05:11:15.060Z,19.26
2023-01-27T05:16:21.438Z,19.29
2023-01-27T05:21:28.399Z,19.27
2023-01-27T05:26:31.272Z,19.23
2023-01-27T05:31:35.470Z,19.23
2023-01-27T05:36:38.425Z,19.32
2023-01-27T05:41:41.321Z,19.24
2023-01-27T05:46:45.549Z,19.35
2023-01-27T05:51:48.438Z,19.32
2023-01-27T05:56:51.285Z,19.16
2023-01-27T06:01:55.499Z,19.14
2023-01-27T06:06:58.325Z,19.28
2023-01-27T06:12:01.121Z,19.13
2023-01-27T06:17:05.271Z,19.25
2023-01-27T06:22:08.150Z,19.28
2023-01-27T06:27:10.996Z,19.20
2023-01-27T06:32:15.142Z,19.18
2023-01-27T06:37:17.957Z,18.97
2023-01-27T06:42:20.744Z,18.99
2023-01-27T06:47:25.634Z,18.98
2023-01-27T06:52:28.470Z,19.07
2023-01-27T06:57:31.356Z,19.15
2023-01-27T07:02:35.596Z,18.98
2023-01-27T07:07:38.712Z,19.14
2023-01-27T07:12:41.553Z,19.13
2023-01-27T07:17:45.676Z,19.03
2023-01-27T07:22:48.515Z,18.97
2023-01-27T07:27:51.335Z,19.17
2023-01-27T07:32:56.070Z,19.19
2023-01-27T07:37:59.001Z,19.36
2023-01-27T07:43:02.117Z,19.00
2023-01-27T07:48:08.215Z,19.13
2023-01-27T07:53:11.628Z,19.23
2023-01-27T07:58:14.436Z,19.17
2023-01-27T08:03:22.953Z,19.08
2023-01-27T08:08:26.877Z,18.96
2023-01-27T08:13:31.780Z,19.99
2023-01-27T08:18:36.126Z,21.01
2023-01-27T08:23:39.086Z,20.50
2023-01-27T08:28:42.356Z,20.50
2023-01-27T08:33:51.028Z,22.01
2023-01-27T08:38:53.923Z,21.33
2023-01-27T08:43:56.725Z,21.15
2023-01-27T08:49:00.925Z,20.79
2023-01-27T08:54:04.193Z,20.64
2023-01-27T08:59:07.071Z,20.52
2023-01-27T09:04:11.340Z,21.07
2023-01-27T09:09:14.142Z,21.06
2023-01-27T09:14:16.983Z,20.59
2023-01-27T09:19:21.153Z,20.45
2023-01-27T09:24:24.068Z,20.68
2023-01-27T09:29:26.997Z,19.96
2023-01-27T09:34:31.250Z,19.89
2023-01-27T09:39:35.522Z,19.64
2023-01-27T09:44:52.083Z,19.61
2023-01-27T09:50:09.888Z,20.06
2023-01-27T09:55:18.717Z,23.31
2023-01-27T10:00:32.539Z,20.09
2023-01-27T10:05:46.779Z,20.27
2023-01-27T10:10:59.344Z,21.18
2023-01-27T10:16:16.006Z,20.65
2023-01-27T10:21:24.110Z,20.59
2023-01-27T10:26:32.760Z,21.21
2023-01-27T10:31:37.789Z,20.97
2023-01-27T10:36:48.025Z,20.41
2023-01-27T10:41:56.862Z,21.02
2023-01-27T10:47:10.137Z,20.94
2023-01-27T10:52:17.176Z,20.49
2023-01-27T10:57:22.492Z,20.72
2023-01-27T11:02:31.039Z,20.17
2023-01-27T11:07:45.997Z,20.05
2023-01-27T11:12:50.170Z,19.87
2023-01-27T11:17:56.245Z,19.40
2023-01-27T11:23:04.580Z,19.71
2023-01-27T11:28:15.376Z,19.58
2023-01-27T11:33:21.685Z,19.24
2023-01-27T11:38:25.971Z,19.31
2023-01-27T11:43:29.584Z,19.33
2023-01-27T11:48:41.030Z,19.50
2023-01-27T11:53:46.176Z,19.62
2023-01-27T11:58:54.500Z,19.48
2023-01-27T12:04:01.132Z,19.83
2023-01-27T12:09:05.325Z,19.51
2023-01-27T12:14:14.477Z,19.55
2023-01-27T12:19:24.144Z,19.29
2023-01-27T12:24:32.223Z,19.41
2023-01-27T12:29:40.105Z,19.56
2023-01-27T12:34:46.130Z,19.29
2023-01-27T12:39:53.131Z,19.28
2023-01-27T12:44:57.672Z,19.39
2023-01-27T12:50:22.498Z,19.75
2023-01-27T12:55:31.600Z,19.38
2023-01-27T13:00:35.337Z,19.17
2023-01-27T13:05:39.635Z,18.89
2023-01-27T13:10:52.587Z,18.60
2023-01-27T13:15:57.363Z,18.63
2023-01-27T13:21:09.097Z,19.06
2023-01-27T13:26:17.078Z,18.83
2023-01-27T13:31:24.280Z,18.96
2023-01-27T13:36:33.245Z,18.71
2023-01-27T13:41:42.665Z,19.47
2023-01-27T13:46:46.386Z,22.76
2023-01-27T13:51:49.252Z,24.38
2023-01-27T13:57:07.246Z,22.88
2023-01-27T14:02:29.146Z,22.67
2023-01-27T14:07:38.476Z,21.94
2023-01-27T14:12:51.468Z,21.54
2023-01-27T14:17:58.665Z,20.88
2023-01-27T14:23:11.490Z,20.75
2023-01-27T14:28:24.137Z,19.90
2023-01-27T14:33:47.310Z,19.22
2023-01-27T14:38:59.793Z,19.09
2023-01-27T14:44:12.190Z,19.29
2023-01-27T14:49:20.555Z,18.93
2023-01-27T14:54:34.288Z,18.74
2023-01-27T14:59:43.726Z,19.47
2023-01-27T15:04:55.005Z,19.83
2023-01-27T15:10:05.312Z,20.06
2023-01-27T15:15:59.064Z,19.84
2023-01-27T15:21:12.996Z,19.84
2023-01-27T15:26:18.489Z,19.80
2023-01-27T15:31:24.579Z,18.66
2023-01-27T15:36:34.283Z,18.84
2023-01-27T15:41:37.953Z,18.53
2023-01-27T15:46:44.733Z,19.76
2023-01-27T15:51:50.625Z,19.20
2023-01-27T15:56:54.836Z,19.86
2023-01-27T16:02:03.369Z,20.71
2023-01-27T16:07:20.163Z,20.40
2023-01-27T16:12:32.738Z,20.51
2023-01-27T16:17:35.580Z,20.61
2023-01-27T16:22:41.679Z,20.37
2023-01-27T16:27:47.882Z,20.38
2023-01-27T16:32:59.819Z,20.51
2023-01-27T16:38:07.669Z,20.45
2023-01-27T16:43:16.298Z,20.47
2023-01-27T16:48:30.208Z,20.47
2023-01-27T16:53:34.407Z,20.43
2023-01-27T16:58:46.168Z,20.31
2023-01-27T17:03:51.491Z,20.27
2023-01-27T17:08:55.742Z,20.27
2023-01-27T17:14:01.386Z,20.29
2023-01-27T17:19:07.973Z,20.27
2023-01-27T17:24:16.428Z,20.22
2023-01-27T17:29:21.052Z,20.05
2023-01-27T17:34:23.877Z,20.06
2023-01-27T17:39:33.677Z,20.07
2023-01-27T17:44:36.615Z,20.19
2023-01-27T17:49:39.992Z,20.14
2023-01-27T17:54:46.872Z,20.18
2023-01-27T17:59:56.914Z,20.02
2023-01-27T18:05:00.833Z,20.12
2023-01-27T18:10:23.937Z,20.29
2023-01-27T18:15:34.761Z,20.19
2023-01-27T18:20:37.650Z,20.23
2023-01-27T18:25:51.361Z,20.24
2023-01-27T18:30:54.370Z,20.12
2023-01-27T18:35:58.150Z,20.15
2023-01-27T18:41:12.185Z,20.16
2023-01-27T18:46:15.107Z,20.23
2023-01-27T18:51:18.378Z,20.09
2023-01-27T18:56:22.512Z,19.99
2023-01-27T19:01:25.358Z,20.04
2023-01-27T19:06:28.381Z,20.12
2023-01-27T19:11:32.954Z,20.07
2023-01-27T19:16:36.817Z,19.98
2023-01-27T19:21:39.717Z,19.99
2023-01-27T19:26:43.930Z,19.92
2023-01-27T19:31:46.836Z,19.87
2023-01-27T19:36:49.746Z,19.84
2023-01-27T19:41:53.888Z,20.01
2023-01-27T19:46:57.188Z,19.96
2023-01-27T19:52:00.056Z,19.99
2023-01-27T19:57:05.982Z,20.03
2023-01-27T20:02:09.958Z,20.00
2023-01-27T20:07:13.242Z,19.85
2023-01-27T20:12:17.663Z,20.01
2023-01-27T20:17:21.129Z,19.92
2023-01-27T20:22:26.065Z,19.97
2023-01-27T20:27:31.487Z,19.88
2023-01-27T20:32:34.288Z,19.95
2023-01-27T20:37:37.065Z,19.91
2023-01-27T20:42:41.304Z,19.99
2023-01-27T20:47:44.261Z,19.94
2023-01-27T20:52:48.265Z,19.98
2023-01-27T20:57:52.938Z,20.11
2023-01-27T21:02:57.149Z,20.03
2023-01-27T21:07:59.941Z,20.11
2023-01-27T21:13:04.180Z,19.94
2023-01-27T21:18:07.004Z,19.92
2023-01-27T21:23:09.783Z,19.79
2023-01-27T21:28:14.511Z,19.95
2023-01-27T21:33:17.860Z,19.91
2023-01-27T21:38:20.922Z,19.81
2023-01-27T21:43:42.469Z,19.93
2023-01-27T21:48:45.321Z,19.82
2023-01-27T21:53:48.199Z,19.88
2023-01-27T21:58:52.367Z,20.03
2023-01-27T22:03:55.180Z,19.90
2023-01-27T22:08:57.973Z,19.84
2023-01-27T22:14:02.109Z,19.98
2023-01-27T22:19:06.303Z,19.81
2023-01-27T22:24:10.173Z,19.89
2023-01-27T22:29:14.392Z,19.81
2023-01-27T22:34:17.359Z,19.59
2023-01-27T22:39:20.350Z,19.94
2023-01-27T22:44:24.490Z,19.74
2023-01-27T22:49:28.039Z,19.80
2023-01-27T22:54:30.812Z,19.74
2023-01-27T22:59:35.054Z,19.71
2023-01-27T23:04:37.904Z,19.77
2023-01-27T23:09:40.754Z,19.80
2023-01-27T23:14:44.930Z,19.72
2023-01-27T23:19:47.756Z,19.66
2023-01-27T23:24:50.583Z,19.66
2023-01-27T23:29:55.333Z,19.69
2023-01-27T23:35:00.041Z,19.70
2023-01-27T23:40:02.895Z,19.67
2023-01-27T23:45:08.072Z,19.74
2023-01-27T23:50:11.984Z,19.59
2023-01-27T23:55:15.225Z,19.37
